Time;durP1;ratioP1;P1;durP2;ratioP2;P2;SDS_P1;SDS_P2;PMS_P1;PMS_P2;Temp;Humidity;BMP_temperature;BMP_pressure;BME280_temperature;BME280_humidity;BME280_pressure;Samples;Min_cycle;Max_cycle;Signal;HPM_P1;HPM_P2
2021/09/15 00:00:05;;;;;;;;;;;;;;;13.08;76.03;97605.79;116148;1181;60310;-67
2021/09/15 00:03:01;;;;;;;;;;;;;;;13.04;76.97;97604.02;116156;1179;72172;-67
2021/09/15 00:05:31;;;;;;;;;;;;;;;13.03;74.42;97601.50;116279;1181;68387;-67
2021/09/15 00:08:00;;;;;;;;;;;;;;;13.04;75.14;97604.94;116205;1181;68224;-69
2021/09/15 00:10:30;;;;;;;;;;;;;;;13.01;75.95;97605.27;116426;1181;60301;-67
2021/09/15 00:12:59;;;;;;;;;;;;;;;12.97;76.48;97605.59;116461;1181;60354;-68
2021/09/15 00:15:28;;;;;;;;;;;;;;;12.92;79.35;97604.08;116451;1179;72119;-68
2021/09/15 00:17:58;;;;;;;;;;;;;;;12.86;78.75;97606.73;116487;1179;68296;-67
2021/09/15 00:20:27;;;;;;;;;;;;;;;12.82;76.85;97604.38;116079;1181;68437;-68
2021/09/15 00:22:57;;;;;;;;;;;;;;;12.80;75.97;97604.02;116061;1180;60339;-67
2021/09/15 00:25:27;;;;;;;;;;;;;;;12.80;76.81;97608.95;116097;1182;60286;-67
2021/09/15 00:27:56;;;;;;;;;;;;;;;12.78;76.51;97610.32;116083;1182;71956;-67
2021/09/15 00:30:26;;;;;;;;;;;;;;;12.76;78.65;97613.60;116028;1182;68943;-68
2021/09/15 00:32:55;;;;;;;;;;;;;;;12.74;77.07;97613.19;116271;1185;68251;-66
2021/09/15 00:35:25;;;;;;;;;;;;;;;12.72;77.22;97611.95;116083;1182;60346;-67
2021/09/15 00:37:55;;;;;;;;;;;;;;;12.75;76.61;97612.08;116114;1182;60332;-67
2021/09/15 00:40:25;;;;;;;;;;;;;;;12.72;77.73;97610.91;116082;1182;71936;-67
2021/09/15 00:42:55;;;;;;;;;;;;;;;12.68;77.91;97615.98;116081;1181;69154;-66
2021/09/15 00:45:25;;;;;;;;;;;;;;;12.64;77.59;97613.80;116064;1182;68458;-67
2021/09/15 00:47:56;;;;;;;;;;;;;;;12.62;78.10;97616.24;116007;1183;60369;-65
2021/09/15 00:50:26;;;;;;;;;;;;;;;12.57;79.84;97614.75;116212;1182;60302;-68
2021/09/15 00:52:56;;;;;;;;;;;;;;;12.52;78.63;97611.96;116350;1182;72019;-67
2021/09/15 00:55:26;;;;;;;;;;;;;;;12.48;79.10;97610.34;116350;1179;68978;-67
2021/09/15 00:57:56;;;;;;;;;;;;;;;12.45;78.67;97611.98;116291;1177;69266;-69
2021/09/15 01:00:26;;;;;;;;;;;;;;;12.43;79.08;97612.16;116352;1183;60363;-67
2021/09/15 01:02:57;;;;;;;;;;;;;;;12.40;79.23;97613.61;116220;1181;60338;-71
2021/09/15 01:05:28;;;;;;;;;;;;;;;12.38;78.15;97612.57;116064;1182;72236;-69
2021/09/15 01:08:01;;;;;;;;;;;;;;;12.34;80.06;97615.12;116349;1179;69218;-67
2021/09/15 01:10:32;;;;;;;;;;;;;;;12.27;82.32;97616.85;116321;1181;68468;-66
2021/09/15 01:13:10;;;;;;;;;;;;;;;12.17;83.29;97616.55;116341;1180;60334;-66
2021/09/15 01:16:11;;;;;;;;;;;;;;;12.14;82.35;97614.86;116318;1179;60262;-67
2021/09/15 01:18:58;;;;;;;;;;;;;;;12.12;81.73;97610.11;116349;1179;72139;-66
2021/09/15 01:22:01;;;;;;;;;;;;;;;12.12;80.70;97605.11;116352;1182;69201;-67
2021/09/15 01:24:51;;;;;;;;;;;;;;;12.10;81.83;97604.90;116308;1182;67498;-67
2021/09/15 01:27:41;;;;;;;;;;;;;;;12.10;79.97;97608.38;116282;1179;60327;-67
2021/09/15 01:30:22;;;;;;;;;;;;;;;12.11;78.45;97609.50;116290;1184;60283;-66
2021/09/15 01:32:54;;;;;;;;;;;;;;;12.11;78.70;97612.98;116185;1183;71424;-68
2021/09/15 01:35:24;;;;;;;;;;;;;;;12.11;78.65;97613.02;115997;1182;69162;-67
2021/09/15 01:37:54;;;;;;;;;;;;;;;12.09;77.83;97612.08;115964;1184;68476;-67
2021/09/15 01:40:39;;;;;;;;;;;;;;;12.08;78.19;97611.48;116122;1182;60349;-66
2021/09/15 01:43:10;;;;;;;;;;;;;;;12.05;78.02;97610.64;116036;1181;60350;-66
2021/09/15 01:45:42;;;;;;;;;;;;;;;12.02;79.46;97608.98;116047;1179;70371;-66
2021/09/15 01:48:19;;;;;;;;;;;;;;;11.98;80.80;97609.29;116080;1181;68387;-67
2021/09/15 01:50:49;;;;;;;;;;;;;;;11.95;79.47;97611.92;116298;1181;68885;-67
2021/09/15 01:53:20;;;;;;;;;;;;;;;11.96;78.02;97606.80;116178;1178;60372;-66
2021/09/15 01:55:51;;;;;;;;;;;;;;;11.93;77.97;97611.77;116118;1178;60340;-67
2021/09/15 01:58:30;;;;;;;;;;;;;;;11.89;77.79;97608.75;116228;1181;71331;-67
2021/09/15 02:01:35;;;;;;;;;;;;;;;11.87;78.02;97609.42;116434;1181;68412;-68
2021/09/15 02:04:25;;;;;;;;;;;;;;;11.82;79.80;97608.71;116065;1180;68443;-68
2021/09/15 02:07:17;;;;;;;;;;;;;;;11.73;81.49;97602.78;116312;1181;60772;-66
2021/09/15 02:10:07;;;;;;;;;;;;;;;11.66;80.52;97602.38;116437;1180;60285;-67
2021/09/15 02:12:39;;;;;;;;;;;;;;;11.63;78.91;97596.12;116248;1181;71745;-67
2021/09/15 02:15:10;;;;;;;;;;;;;;;11.62;78.49;97594.84;116229;1182;67763;-69
2021/09/15 02:17:41;;;;;;;;;;;;;;;11.60;79.00;97598.83;116304;1178;68236;-66
2021/09/15 02:20:22;;;;;;;;;;;;;;;11.59;79.74;97594.70;116345;1178;60359;-67
2021/09/15 02:23:08;;;;;;;;;;;;;;;11.58;78.93;97593.58;116104;1181;60826;-66
2021/09/15 02:25:51;;;;;;;;;;;;;;;11.57;78.07;97596.74;116314;1180;72175;-67
2021/09/15 02:28:30;;;;;;;;;;;;;;;11.56;78.56;97595.80;116343;1178;69147;-66
2021/09/15 02:31:26;;;;;;;;;;;;;;;11.54;78.00;97593.88;116253;1179;68357;-67
2021/09/15 02:34:14;;;;;;;;;;;;;;;11.52;77.83;97595.23;116288;1181;60362;-67
2021/09/15 02:36:59;;;;;;;;;;;;;;;11.49;78.48;97593.49;116305;1182;60330;-66
2021/09/15 02:39:49;;;;;;;;;;;;;;;11.46;79.19;97595.63;116300;1179;72392;-70
2021/09/15 02:42:26;;;;;;;;;;;;;;;11.44;80.08;97600.91;116322;1181;69205;-67
2021/09/15 02:45:04;;;;;;;;;;;;;;;11.42;79.87;97603.97;116095;1182;68411;-67
2021/09/15 02:47:45;;;;;;;;;;;;;;;11.40;80.56;97604.09;116023;1181;60326;-67
2021/09/15 02:50:36;;;;;;;;;;;;;;;11.40;79.64;97610.59;115933;1181;60433;-67
2021/09/15 02:53:35;;;;;;;;;;;;;;;11.38;80.89;97611.77;115971;1183;71402;-67
2021/09/15 02:56:24;;;;;;;;;;;;;;;11.37;79.44;97610.09;116155;1182;69841;-66
2021/09/15 02:59:24;;;;;;;;;;;;;;;11.37;78.74;97611.64;116078;1178;69431;-66
2021/09/15 03:02:08;;;;;;;;;;;;;;;11.37;77.59;97611.84;116325;1182;60456;-67
2021/09/15 03:04:51;;;;;;;;;;;;;;;11.38;77.93;97616.17;116337;1178;60355;-65
2021/09/15 03:07:37;;;;;;;;;;;;;;;11.34;78.13;97621.84;116284;1182;72150;-67
2021/09/15 03:10:06;;;;;;;;;;;;;;;11.33;78.41;97620.70;115961;1180;69096;-67
2021/09/15 03:12:36;;;;;;;;;;;;;;;11.29;79.47;97619.58;116036;1182;69197;-69
2021/09/15 03:15:06;;;;;;;;;;;;;;;11.28;80.56;97622.64;116300;1179;60737;-67
2021/09/15 03:17:36;;;;;;;;;;;;;;;11.27;80.55;97623.92;116270;1179;60360;-67
2021/09/15 03:20:05;;;;;;;;;;;;;;;11.22;81.04;97622.70;116206;1181;73155;-67
2021/09/15 03:22:37;;;;;;;;;;;;;;;11.14;81.40;97626.05;116144;1182;69290;-66
2021/09/15 03:25:08;;;;;;;;;;;;;;;11.01;82.43;97629.95;116088;1178;68440;-66
2021/09/15 03:27:37;;;;;;;;;;;;;;;10.90;83.63;97628.45;116124;1181;60414;-66
2021/09/15 03:30:08;;;;;;;;;;;;;;;10.83;84.60;97629.16;116066;1179;60266;-66
2021/09/15 03:32:38;;;;;;;;;;;;;;;10.81;82.22;97630.67;116153;1179;71648;-69
2021/09/15 03:35:09;;;;;;;;;;;;;;;10.80;82.71;97634.23;116388;1179;69132;-69
2021/09/15 03:37:39;;;;;;;;;;;;;;;10.78;82.78;97640.63;116308;1181;68645;-66
2021/09/15 03:40:08;;;;;;;;;;;;;;;10.78;82.42;97641.67;116122;1178;60296;-69
2021/09/15 03:42:38;;;;;;;;;;;;;;;10.78;82.37;97637.52;116551;1181;59819;-66
2021/09/15 03:45:07;;;;;;;;;;;;;;;10.77;81.32;97634.45;116017;1182;71203;-67
2021/09/15 03:47:37;;;;;;;;;;;;;;;10.76;82.99;97633.98;116047;1181;69196;-66
2021/09/15 03:50:08;;;;;;;;;;;;;;;10.74;83.17;97635.35;116122;1181;68232;-66
2021/09/15 03:52:38;;;;;;;;;;;;;;;10.74;83.56;97636.25;116031;1179;60336;-66
2021/09/15 03:55:08;;;;;;;;;;;;;;;10.73;83.17;97637.70;116025;1179;60429;-66
2021/09/15 03:57:37;;;;;;;;;;;;;;;10.73;84.21;97636.98;116190;1181;71885;-67
2021/09/15 04:00:07;;;;;;;;;;;;;;;10.74;84.45;97640.09;116467;1181;68367;-66
2021/09/15 04:02:40;;;;;;;;;;;;;;;10.75;83.42;97642.29;116441;1181;69124;-67
2021/09/15 04:05:13;;;;;;;;;;;;;;;10.76;82.50;97640.12;116439;1178;60345;-66
2021/09/15 04:07:42;;;;;;;;;;;;;;;10.75;83.22;97646.30;116078;1179;60301;-67
2021/09/15 04:10:12;;;;;;;;;;;;;;;10.74;82.28;97642.73;116177;1178;72562;-66
2021/09/15 04:12:42;;;;;;;;;;;;;;;10.72;82.10;97639.70;116058;1181;68414;-66
2021/09/15 04:15:12;;;;;;;;;;;;;;;10.71;81.13;97640.92;116162;1181;68405;-66
2021/09/15 04:17:43;;;;;;;;;;;;;;;10.72;81.28;97640.71;116142;1181;60394;-66
2021/09/15 04:20:13;;;;;;;;;;;;;;;10.72;80.75;97641.91;116021;1182;60736;-66
2021/09/15 04:22:43;;;;;;;;;;;;;;;10.75;79.96;97643.67;115970;1178;72884;-66
2021/09/15 04:33:37;;;;;;;;;;;;;;;11.01;80.38;97647.05;115970;1181;60279;-66
2021/09/15 04:36:07;;;;;;;;;;;;;;;11.12;80.21;97649.73;115995;1182;71479;-66
2021/09/15 04:38:37;;;;;;;;;;;;;;;11.21;79.85;97652.25;116060;1181;67466;-66
2021/09/15 04:41:09;;;;;;;;;;;;;;;11.29;79.52;97651.14;116433;1178;67457;-67
2021/09/15 04:43:40;;;;;;;;;;;;;;;11.35;79.38;97656.49;116318;1182;60356;-67
2021/09/15 04:46:10;;;;;;;;;;;;;;;11.40;79.55;97655.40;116044;1185;60428;-66
2021/09/15 04:48:40;;;;;;;;;;;;;;;11.47;79.25;97658.75;116147;1180;71964;-67
2021/09/15 04:51:11;;;;;;;;;;;;;;;11.58;78.90;97664.77;116306;1181;68664;-66
2021/09/15 04:53:40;;;;;;;;;;;;;;;11.76;78.67;97666.75;116311;1181;68398;-66
2021/09/15 04:56:10;;;;;;;;;;;;;;;12.02;78.56;97665.92;116185;1181;60433;-66
2021/09/15 04:58:39;;;;;;;;;;;;;;;12.28;78.36;97670.21;116242;1181;60339;-66
2021/09/15 05:01:08;;;;;;;;;;;;;;;12.56;78.35;97672.88;116304;1181;71011;-66
2021/09/15 05:03:38;;;;;;;;;;;;;;;12.86;78.66;97677.19;116201;1178;68224;-67
2021/09/15 05:06:09;;;;;;;;;;;;;;;13.21;77.45;97678.29;116138;1180;68345;-66
2021/09/15 05:08:38;;;;;;;;;;;;;;;13.54;75.76;97677.04;116117;1183;60355;-66
2021/09/15 05:11:08;;;;;;;;;;;;;;;13.82;74.64;97678.83;116200;1178;60409;-66
2021/09/15 05:13:37;;;;;;;;;;;;;;;14.11;75.21;97682.17;116123;1181;72296;-66
2021/09/15 05:16:06;;;;;;;;;;;;;;;14.35;73.64;97683.22;116308;1178;68398;-67
2021/09/15 05:18:36;;;;;;;;;;;;;;;14.49;73.34;97691.50;116199;1182;68345;-67
2021/09/15 05:21:06;;;;;;;;;;;;;;;14.59;72.77;97690.48;116144;1181;60384;-66
2021/09/15 05:23:35;;;;;;;;;;;;;;;14.81;72.46;97694.40;116271;1181;60442;-68
2021/09/15 05:26:06;;;;;;;;;;;;;;;15.13;72.14;97695.02;116102;1178;70629;-67
2021/09/15 05:28:36;;;;;;;;;;;;;;;15.28;71.40;97692.59;116061;1182;67867;-69
2021/09/15 05:31:05;;;;;;;;;;;;;;;15.27;71.06;97696.50;116326;1181;68802;-67
2021/09/15 05:33:34;;;;;;;;;;;;;;;15.21;70.80;97699.34;116111;1178;60336;-67
2021/09/15 05:36:03;;;;;;;;;;;;;;;15.15;71.25;97703.05;116229;1179;60309;-66
2021/09/15 05:38:33;;;;;;;;;;;;;;;15.12;71.21;97701.73;116166;1179;71412;-68
2021/09/15 05:41:12;;;;;;;;;;;;;;;15.08;70.63;97699.79;116296;1178;69161;-66
2021/09/15 05:43:42;;;;;;;;;;;;;;;15.35;70.64;97700.63;116217;1181;69025;-67
2021/09/15 05:46:13;;;;;;;;;;;;;;;15.82;69.81;97707.77;116107;1182;60347;-67
2021/09/15 05:48:42;;;;;;;;;;;;;;;16.26;68.13;97708.10;116095;1184;60372;-66
2021/09/15 05:51:12;;;;;;;;;;;;;;;16.70;68.12;97706.73;116396;1181;71636;-70
2021/09/15 05:53:43;;;;;;;;;;;;;;;17.16;68.52;97705.10;116248;1180;69041;-66
2021/09/15 05:56:12;;;;;;;;;;;;;;;17.51;67.67;97699.74;116325;1179;68981;-66
2021/09/15 05:58:41;;;;;;;;;;;;;;;17.96;67.46;97699.58;116205;1182;60339;-66
2021/09/15 06:01:10;;;;;;;;;;;;;;;18.45;66.71;97692.07;116234;1179;60340;-66
2021/09/15 06:03:39;;;;;;;;;;;;;;;18.82;66.28;97688.26;116338;1178;71161;-67
2021/09/15 06:06:11;;;;;;;;;;;;;;;19.25;65.82;97690.70;116248;1180;69012;-66
2021/09/15 06:08:40;;;;;;;;;;;;;;;19.28;61.84;97693.31;116137;1181;68220;-66
2021/09/15 06:11:09;;;;;;;;;;;;;;;19.37;62.29;97698.28;116063;1180;60361;-66
2021/09/15 06:13:39;;;;;;;;;;;;;;;19.54;59.56;97698.24;116215;1181;60381;-66
2021/09/15 06:16:08;;;;;;;;;;;;;;;19.75;60.31;97707.14;116120;1182;71951;-66
2021/09/15 06:18:38;;;;;;;;;;;;;;;20.25;61.08;97708.25;115976;1179;69646;-67
2021/09/15 06:21:23;;;;;;;;;;;;;;;20.64;58.80;97702.23;116110;1183;69340;-66
2021/09/15 06:24:04;;;;;;;;;;;;;;;21.05;58.52;97697.40;116449;1181;60264;-66
2021/09/15 06:26:33;;;;;;;;;;;;;;;21.38;56.31;97702.75;116218;1182;60340;-67
2021/09/15 06:29:02;;;;;;;;;;;;;;;21.74;55.61;97698.27;116316;1181;71551;-67
2021/09/15 06:31:31;;;;;;;;;;;;;;;22.07;54.88;97699.80;116302;1179;68834;-65
2021/09/15 06:34:00;;;;;;;;;;;;;;;22.17;51.08;97701.55;116353;1181;68231;-66
2021/09/15 06:36:29;;;;;;;;;;;;;;;22.26;52.54;97700.14;116346;1181;60335;-67
2021/09/15 06:38:59;;;;;;;;;;;;;;;22.14;52.02;97702.18;116407;1181;60327;-66
2021/09/15 06:41:28;;;;;;;;;;;;;;;21.82;52.62;97702.96;116267;1178;72516;-66
2021/09/15 06:43:57;;;;;;;;;;;;;;;21.72;53.60;97702.37;116324;1179;68050;-66
2021/09/15 06:46:27;;;;;;;;;;;;;;;21.92;53.43;97702.22;116377;1181;68430;-66
2021/09/15 06:49:00;;;;;;;;;;;;;;;22.16;52.27;97703.42;116354;1181;60365;-67
2021/09/15 06:51:30;;;;;;;;;;;;;;;22.03;52.43;97705.08;116305;1181;60303;-66
2021/09/15 06:54:00;;;;;;;;;;;;;;;21.63;53.04;97704.70;116281;1181;72078;-66
2021/09/15 06:56:30;;;;;;;;;;;;;;;21.65;52.80;97701.14;116247;1181;68991;-69
2021/09/15 06:59:01;;;;;;;;;;;;;;;21.37;52.89;97703.75;116429;1181;69142;-69
2021/09/15 07:01:30;;;;;;;;;;;;;;;21.15;53.26;97705.21;116406;1181;60288;-66
2021/09/15 07:03:59;;;;;;;;;;;;;;;21.28;53.84;97707.17;116292;1181;60356;-69
2021/09/15 07:06:29;;;;;;;;;;;;;;;21.90;52.82;97709.24;116385;1178;71955;-67
2021/09/15 07:08:57;;;;;;;;;;;;;;;21.55;51.73;97706.98;116404;1181;69000;-67
2021/09/15 07:11:27;;;;;;;;;;;;;;;21.81;52.11;97706.51;116233;1181;68226;-65
2021/09/15 07:14:01;;;;;;;;;;;;;;;21.89;51.99;97705.13;116253;1181;60375;-67
2021/09/15 07:16:31;;;;;;;;;;;;;;;21.64;51.88;97706.81;116448;1180;60333;-67
2021/09/15 07:19:00;;;;;;;;;;;;;;;21.55;52.70;97705.40;116399;1179;71192;-66
2021/09/15 07:21:29;;;;;;;;;;;;;;;21.80;52.29;97705.72;116213;1178;68209;-65
2021/09/15 07:23:58;;;;;;;;;;;;;;;22.19;52.34;97710.86;116121;1181;68470;-66
2021/09/15 07:26:28;;;;;;;;;;;;;;;22.51;50.82;97712.45;116189;1179;60330;-66
2021/09/15 07:28:58;;;;;;;;;;;;;;;22.64;50.35;97710.08;116192;1181;60305;-69
2021/09/15 07:31:27;;;;;;;;;;;;;;;22.66;50.21;97712.59;116350;1181;71169;-69
2021/09/15 07:33:56;;;;;;;;;;;;;;;22.34;50.38;97709.13;116264;1182;69204;-66
2021/09/15 07:36:25;;;;;;;;;;;;;;;22.72;50.13;97710.14;116237;1181;68292;-67
2021/09/15 07:38:54;;;;;;;;;;;;;;;22.94;49.44;97706.71;116187;1178;60365;-67
2021/09/15 07:41:22;;;;;;;;;;;;;;;22.92;48.94;97710.79;116256;1178;60294;-67
2021/09/15 07:43:51;;;;;;;;;;;;;;;23.03;48.68;97707.15;116294;1181;72131;-66
2021/09/15 07:46:21;;;;;;;;;;;;;;;23.60;48.20;97716.33;116179;1181;68983;-67
2021/09/15 07:48:54;;;;;;;;;;;;;;;23.99;47.18;97718.06;116252;1181;69056;-66
2021/09/15 07:51:23;;;;;;;;;;;;;;;24.68;46.61;97715.84;116311;1181;60310;-67
2021/09/15 07:53:51;;;;;;;;;;;;;;;24.86;44.72;97708.16;116275;1178;60769;-67
2021/09/15 07:56:20;;;;;;;;;;;;;;;24.51;44.79;97708.67;116212;1178;71249;-66
2021/09/15 07:58:50;;;;;;;;;;;;;;;24.12;46.05;97712.70;116088;1181;68665;-67
2021/09/15 08:01:22;;;;;;;;;;;;;;;24.96;45.68;97706.71;116290;1181;69027;-66
2021/09/15 08:03:52;;;;;;;;;;;;;;;25.64;43.79;97710.64;116302;1178;60668;-67
2021/09/15 08:06:22;;;;;;;;;;;;;;;26.43;42.03;97713.96;116315;1177;60325;-70
2021/09/15 08:08:58;;;;;;;;;;;;;;;26.04;41.43;97711.38;116287;1181;71690;-67
2021/09/15 08:11:27;;;;;;;;;;;;;;;26.06;41.19;97709.70;116306;1181;69118;-66
2021/09/15 08:13:56;;;;;;;;;;;;;;;25.95;41.92;97709.45;116291;1181;69324;-67
2021/09/15 08:16:25;;;;;;;;;;;;;;;26.38;40.79;97715.40;116252;1181;60260;-67
2021/09/15 08:18:54;;;;;;;;;;;;;;;26.97;40.31;97713.08;116285;1178;60372;-67
2021/09/15 08:21:40;;;;;;;;;;;;;;;27.44;39.69;97709.76;116236;1179;71119;-68
2021/09/15 08:24:09;;;;;;;;;;;;;;;27.50;38.35;97711.67;116265;1181;68474;-67
2021/09/15 08:26:39;;;;;;;;;;;;;;;26.36;40.11;97709.73;116173;1182;68755;-66
2021/09/15 08:29:08;;;;;;;;;;;;;;;26.78;39.85;97710.55;116253;1179;60268;-67
2021/09/15 08:31:37;;;;;;;;;;;;;;;26.72;39.95;97704.23;116232;1181;60449;-67
2021/09/15 08:34:06;;;;;;;;;;;;;;;27.19;39.01;97700.00;116278;1182;71252;-67
2021/09/15 08:36:35;;;;;;;;;;;;;;;27.58;38.51;97704.48;116287;1178;69235;-67
2021/09/15 08:39:04;;;;;;;;;;;;;;;27.19;37.99;97701.02;116249;1178;69228;-67
2021/09/15 08:41:33;;;;;;;;;;;;;;;26.94;38.23;97701.09;116241;1177;60298;-67
2021/09/15 08:44:02;;;;;;;;;;;;;;;26.60;39.15;97700.20;116221;1181;60353;-67
2021/09/15 08:46:32;;;;;;;;;;;;;;;27.03;38.87;97694.69;116211;1179;71206;-68
2021/09/15 08:49:01;;;;;;;;;;;;;;;27.34;37.72;97699.87;116253;1178;68688;-67
2021/09/15 08:51:30;;;;;;;;;;;;;;;28.21;36.90;97697.15;116189;1181;70507;-67
2021/09/15 08:54:00;;;;;;;;;;;;;;;28.62;35.57;97697.89;116250;1181;60333;-69
2021/09/15 08:56:30;;;;;;;;;;;;;;;28.82;35.06;97695.19;116301;1181;60301;-68
2021/09/15 08:58:59;;;;;;;;;;;;;;;28.14;36.06;97695.86;116347;1178;71880;-68
2021/09/15 09:01:28;;;;;;;;;;;;;;;28.24;35.57;97694.15;116208;1178;68959;-67
2021/09/15 09:03:57;;;;;;;;;;;;;;;28.62;34.31;97690.38;116232;1181;68232;-67
2021/09/15 09:06:30;;;;;;;;;;;;;;;28.89;34.51;97687.24;116189;1182;60381;-68
2021/09/15 09:09:02;;;;;;;;;;;;;;;29.57;33.56;97683.43;116201;1180;60333;-67
2021/09/15 09:11:33;;;;;;;;;;;;;;;29.54;33.43;97683.45;116136;1183;71790;-67
2021/09/15 09:14:07;;;;;;;;;;;;;;;29.03;33.31;97683.79;116201;1181;69246;-68
2021/09/15 09:16:47;;;;;;;;;;;;;;;29.79;33.24;97672.50;116381;1181;69023;-70
2021/09/15 09:19:21;;;;;;;;;;;;;;;30.39;32.54;97676.23;116312;1178;60331;-71
2021/09/15 09:21:51;;;;;;;;;;;;;;;30.70;31.65;97674.91;116298;1181;60327;-68
2021/09/15 09:24:26;;;;;;;;;;;;;;;30.71;31.52;97672.79;116268;1179;71642;-69
2021/09/15 09:26:55;;;;;;;;;;;;;;;30.93;31.51;97668.31;116287;1178;68752;-70
2021/09/15 09:29:29;;;;;;;;;;;;;;;30.91;31.62;97663.50;116275;1181;69291;-68
2021/09/15 09:31:58;;;;;;;;;;;;;;;31.25;30.49;97663.03;116240;1181;60348;-68
2021/09/15 09:34:28;;;;;;;;;;;;;;;31.53;30.41;97659.35;116258;1181;60345;-70
2021/09/15 09:36:57;;;;;;;;;;;;;;;31.12;30.88;97659.77;116212;1183;72169;-67
2021/09/15 09:39:37;;;;;;;;;;;;;;;30.92;30.60;97654.46;116248;1180;68237;-66
2021/09/15 09:42:24;;;;;;;;;;;;;;;31.10;30.92;97654.49;116258;1181;69349;-68
2021/09/15 09:45:08;;;;;;;;;;;;;;;31.68;29.92;97654.63;116252;1182;60350;-68
2021/09/15 09:47:38;;;;;;;;;;;;;;;31.16;30.44;97653.75;116306;1181;60349;-67
2021/09/15 09:50:13;;;;;;;;;;;;;;;30.14;31.63;97655.61;116377;1177;72957;-68
2021/09/15 09:52:54;;;;;;;;;;;;;;;29.22;32.82;97651.05;116278;1181;68360;-67
2021/09/15 09:55:31;;;;;;;;;;;;;;;30.52;31.11;97651.98;116227;1178;68437;-70
2021/09/15 09:58:03;;;;;;;;;;;;;;;31.18;29.52;97644.48;116261;1177;60347;-68
2021/09/15 10:00:32;;;;;;;;;;;;;;;31.14;29.94;97642.01;116286;1177;60276;-68
2021/09/15 10:03:04;;;;;;;;;;;;;;;31.56;29.05;97647.30;116274;1178;71207;-68
2021/09/15 10:05:34;;;;;;;;;;;;;;;31.25;28.84;97642.27;116258;1179;69004;-70
2021/09/15 10:08:03;;;;;;;;;;;;;;;31.89;28.22;97642.82;116312;1181;68212;-68
2021/09/15 10:10:32;;;;;;;;;;;;;;;32.06;27.20;97642.70;116210;1178;60350;-67
2021/09/15 10:13:01;;;;;;;;;;;;;;;32.38;26.82;97643.69;116250;1178;60346;-70
2021/09/15 10:15:30;;;;;;;;;;;;;;;32.40;26.37;97640.86;116285;1181;71334;-69
2021/09/15 10:17:59;;;;;;;;;;;;;;;31.94;27.00;97642.48;116245;1178;69021;-67
2021/09/15 10:20:30;;;;;;;;;;;;;;;32.51;26.28;97636.88;116202;1181;69132;-69
2021/09/15 10:22:59;;;;;;;;;;;;;;;32.65;26.26;97634.60;116254;1180;60352;-68
2021/09/15 10:25:38;;;;;;;;;;;;;;;32.86;25.74;97634.82;116440;1178;60336;-70
2021/09/15 10:28:08;;;;;;;;;;;;;;;32.63;26.79;97631.52;116186;1182;72100;-66
2021/09/15 10:30:53;;;;;;;;;;;;;;;33.25;25.83;97630.87;116284;1181;69079;-68
2021/09/15 10:33:38;;;;;;;;;;;;;;;33.78;25.26;97629.05;116458;1181;69156;-72
2021/09/15 10:36:13;;;;;;;;;;;;;;;33.27;25.11;97624.45;116230;1181;60347;-69
2021/09/15 10:38:51;;;;;;;;;;;;;;;33.29;25.23;97623.77;116257;1178;60321;-69
2021/09/15 10:41:33;;;;;;;;;;;;;;;33.59;24.84;97623.55;116233;1181;71425;-70
2021/09/15 10:44:05;;;;;;;;;;;;;;;33.05;24.92;97625.13;116295;1181;69133;-68
2021/09/15 10:46:35;;;;;;;;;;;;;;;34.12;24.80;97628.27;116279;1178;69041;-67
2021/09/15 10:49:19;;;;;;;;;;;;;;;35.11;24.00;97620.82;116205;1180;60411;-68
2021/09/15 10:52:06;;;;;;;;;;;;;;;35.71;21.74;97622.05;116247;1182;60329;-69
2021/09/15 10:54:46;;;;;;;;;;;;;;;35.42;21.94;97617.31;116197;1182;72835;-70
2021/09/15 10:57:15;;;;;;;;;;;;;;;36.54;21.68;97619.70;116295;1178;69214;-68
2021/09/15 11:00:07;;;;;;;;;;;;;;;37.24;20.08;97615.27;116258;1181;69240;-69
2021/09/15 11:02:38;;;;;;;;;;;;;;;37.46;19.61;97606.68;116180;1182;60356;-69
2021/09/15 11:05:25;;;;;;;;;;;;;;;37.98;19.21;97611.36;116279;1182;60339;-68
2021/09/15 11:07:54;;;;;;;;;;;;;;;38.20;18.33;97610.07;116245;1178;72243;-69
2021/09/15 11:10:33;;;;;;;;;;;;;;;38.57;18.64;97611.63;116266;1178;68273;-69
2021/09/15 11:13:07;;;;;;;;;;;;;;;39.27;18.00;97608.98;116273;1178;68293;-69
2021/09/15 11:15:36;;;;;;;;;;;;;;;39.80;16.59;97602.84;116249;1181;60374;-68
2021/09/15 11:18:05;;;;;;;;;;;;;;;40.06;16.85;97602.73;116211;1179;60331;-69
2021/09/15 11:20:37;;;;;;;;;;;;;;;40.26;15.64;97598.58;116245;1182;72499;-70
2021/09/15 11:23:07;;;;;;;;;;;;;;;40.24;14.94;97593.80;116434;1181;69575;-69
2021/09/15 11:25:39;;;;;;;;;;;;;;;40.32;14.49;97591.25;116417;1183;69018;-71
2021/09/15 11:28:12;;;;;;;;;;;;;;;40.77;15.29;97590.65;116308;1181;60338;-71
2021/09/15 11:30:49;;;;;;;;;;;;;;;41.35;15.49;97586.42;116333;1178;60340;-69
2021/09/15 11:33:32;;;;;;;;;;;;;;;41.78;15.24;97576.56;116298;1176;72172;-71
2021/09/15 11:36:11;;;;;;;;;;;;;;;41.56;14.87;97581.63;116396;1180;69564;-70
2021/09/15 11:38:41;;;;;;;;;;;;;;;38.65;16.43;97578.58;116323;1180;69496;-69
2021/09/15 11:41:11;;;;;;;;;;;;;;;37.92;17.42;97572.08;116229;1179;60362;-70
2021/09/15 11:43:46;;;;;;;;;;;;;;;38.19;17.35;97569.29;116389;1182;60366;-70
2021/09/15 11:46:16;;;;;;;;;;;;;;;38.54;18.12;97566.65;116420;1178;72325;-69
2021/09/15 11:48:45;;;;;;;;;;;;;;;38.22;18.74;97564.42;116300;1182;69219;-72
2021/09/15 11:51:14;;;;;;;;;;;;;;;37.36;19.32;97560.22;116285;1182;69036;-69
2021/09/15 11:53:54;;;;;;;;;;;;;;;36.52;19.87;97557.55;116236;1183;60359;-69
2021/09/15 11:56:30;;;;;;;;;;;;;;;36.22;20.28;97559.36;116237;1181;60336;-72
2021/09/15 11:59:00;;;;;;;;;;;;;;;36.04;20.84;97558.59;116228;1177;71234;-69
2021/09/15 12:01:34;;;;;;;;;;;;;;;35.60;21.20;97559.27;116219;1178;69723;-68
2021/09/15 12:04:07;;;;;;;;;;;;;;;35.55;21.38;97559.82;116265;1181;69331;-69
2021/09/15 12:06:36;;;;;;;;;;;;;;;36.43;21.18;97556.61;116305;1178;60341;-68
2021/09/15 12:09:06;;;;;;;;;;;;;;;37.49;19.72;97550.88;116286;1181;60322;-69
2021/09/15 12:11:36;;;;;;;;;;;;;;;38.13;18.33;97550.20;116180;1178;72885;-69
2021/09/15 12:14:05;;;;;;;;;;;;;;;38.32;18.15;97541.63;116282;1181;69064;-70
2021/09/15 12:16:38;;;;;;;;;;;;;;;38.78;18.63;97543.64;116246;1181;69017;-67
2021/09/15 12:19:17;;;;;;;;;;;;;;;39.15;18.29;97542.93;116265;1181;60344;-72
2021/09/15 12:21:47;;;;;;;;;;;;;;;39.55;17.34;97543.39;116311;1178;60337;-69
2021/09/15 12:24:18;;;;;;;;;;;;;;;39.64;17.43;97540.95;116193;1183;71475;-68
2021/09/15 12:26:47;;;;;;;;;;;;;;;40.03;17.18;97537.75;116271;1178;68274;-70
2021/09/15 12:29:17;;;;;;;;;;;;;;;40.11;16.75;97532.96;116274;1178;68463;-69
2021/09/15 12:31:50;;;;;;;;;;;;;;;39.06;17.23;97525.16;116307;1181;60317;-68
2021/09/15 12:34:30;;;;;;;;;;;;;;;37.77;18.23;97527.09;116267;1181;60352;-73
2021/09/15 12:37:10;;;;;;;;;;;;;;;36.61;19.80;97521.36;116263;1181;72125;-68
2021/09/15 12:39:46;;;;;;;;;;;;;;;36.10;20.23;97526.72;116277;1181;69044;-68
2021/09/15 12:42:19;;;;;;;;;;;;;;;35.87;19.50;97521.58;116288;1182;68579;-69
2021/09/15 12:44:58;;;;;;;;;;;;;;;36.09;19.42;97512.68;116208;1179;60357;-70
2021/09/15 12:47:43;;;;;;;;;;;;;;;36.20;19.72;97511.85;116280;1180;60327;-69
2021/09/15 12:50:15;;;;;;;;;;;;;;;36.02;19.71;97515.29;116308;1181;72613;-68
2021/09/15 12:52:44;;;;;;;;;;;;;;;36.36;19.80;97505.09;116221;1178;69155;-72
2021/09/15 12:55:23;;;;;;;;;;;;;;;36.02;19.68;97505.76;116179;1178;69011;-69
2021/09/15 12:57:59;;;;;;;;;;;;;;;34.04;20.79;97500.48;116187;1180;60518;-67
2021/09/15 13:00:33;;;;;;;;;;;;;;;34.31;21.46;97501.06;116294;1178;60299;-68
2021/09/15 13:03:03;;;;;;;;;;;;;;;34.24;21.02;97495.56;116334;1181;72009;-68
2021/09/15 13:05:33;;;;;;;;;;;;;;;33.90;22.42;97499.27;116486;1178;69286;-69
2021/09/15 13:08:03;;;;;;;;;;;;;;;34.21;22.28;97498.45;116279;1181;68660;-68
2021/09/15 13:10:32;;;;;;;;;;;;;;;34.42;22.08;97492.71;116299;1178;60780;-68
2021/09/15 13:13:00;;;;;;;;;;;;;;;35.31;21.28;97496.15;116278;1178;60344;-70